sensor_id;sensor_type;location;lat;lon;timestamp;P1;durP1;ratioP1;P2;durP2;ratioP2
47882;SDS011;37739;50.350;7.578;2023-05-07T00:01:09;4.60;;;4.20;;
47882;SDS011;37739;50.350;7.578;2023-05-07T00:03:37;3.80;;;3.50;;
47882;SDS011;37739;50.350;7.578;2023-05-07T00:06:02;4.00;;;3.70;;
47882;SDS011;37739;50.350;7.578;2023-05-07T00:08:30;4.50;;;3.97;;
47882;SDS011;37739;50.350;7.578;2023-05-07T00:10:58;4.90;;;4.40;;
47882;SDS011;37739;50.350;7.578;2023-05-07T00:13:23;5.30;;;4.80;;
47882;SDS011;37739;50.350;7.578;2023-05-07T00:15:55;4.40;;;4.10;;
47882;SDS011;37739;50.350;7.578;2023-05-07T00:18:21;2.93;;;2.73;;
47882;SDS011;37739;50.350;7.578;2023-05-07T00:20:47;3.30;;;3.00;;
47882;SDS011;37739;50.350;7.578;2023-05-07T00:23:12;2.80;;;2.50;;
47882;SDS011;37739;50.350;7.578;2023-05-07T00:25:38;2.67;;;2.13;;
47882;SDS011;37739;50.350;7.578;2023-05-07T00:28:05;3.00;;;2.37;;
47882;SDS011;37739;50.350;7.578;2023-05-07T00:30:33;2.73;;;2.27;;
47882;SDS011;37739;50.350;7.578;2023-05-07T00:33:03;2.33;;;2.13;;
47882;SDS011;37739;50.350;7.578;2023-05-07T00:35:28;2.53;;;2.33;;
47882;SDS011;37739;50.350;7.578;2023-05-07T00:37:54;4.23;;;2.33;;
47882;SDS011;37739;50.350;7.578;2023-05-07T00:40:24;3.10;;;2.90;;
47882;SDS011;37739;50.350;7.578;2023-05-07T00:42:52;2.73;;;2.53;;
47882;SDS011;37739;50.350;7.578;2023-05-07T00:45:21;3.50;;;3.13;;
47882;SDS011;37739;50.350;7.578;2023-05-07T00:47:48;2.57;;;2.37;;
47882;SDS011;37739;50.350;7.578;2023-05-07T00:50:16;2.50;;;2.30;;
47882;SDS011;37739;50.350;7.578;2023-05-07T00:52:42;2.97;;;2.77;;
47882;SDS011;37739;50.350;7.578;2023-05-07T00:55:09;3.10;;;2.80;;
47882;SDS011;37739;50.350;7.578;2023-05-07T00:57:42;3.23;;;3.00;;
47882;SDS011;37739;50.350;7.578;2023-05-07T01:00:11;4.27;;;3.17;;
47882;SDS011;37739;50.350;7.578;2023-05-07T01:02:39;3.77;;;3.30;;
47882;SDS011;37739;50.350;7.578;2023-05-07T01:05:07;4.63;;;2.80;;
47882;SDS011;37739;50.350;7.578;2023-05-07T01:07:38;3.70;;;3.40;;
47882;SDS011;37739;50.350;7.578;2023-05-07T01:10:06;3.00;;;2.80;;
47882;SDS011;37739;50.350;7.578;2023-05-07T01:12:32;2.97;;;2.73;;
47882;SDS011;37739;50.350;7.578;2023-05-07T01:14:59;2.77;;;2.53;;
47882;SDS011;37739;50.350;7.578;2023-05-07T01:17:27;3.70;;;3.40;;
47882;SDS011;37739;50.350;7.578;2023-05-07T01:19:52;3.77;;;2.93;;
47882;SDS011;37739;50.350;7.578;2023-05-07T01:22:23;3.50;;;3.20;;
47882;SDS011;37739;50.350;7.578;2023-05-07T01:24:57;4.10;;;3.30;;
47882;SDS011;37739;50.350;7.578;2023-05-07T01:27:29;3.90;;;2.80;;
47882;SDS011;37739;50.350;7.578;2023-05-07T01:29:54;3.60;;;3.30;;
47882;SDS011;37739;50.350;7.578;2023-05-07T01:33:08;3.50;;;3.20;;
47882;SDS011;37739;50.350;7.578;2023-05-07T01:35:11;3.47;;;2.90;;
47882;SDS011;37739;50.350;7.578;2023-05-07T01:37:40;3.07;;;2.63;;
47882;SDS011;37739;50.350;7.578;2023-05-07T01:40:08;2.93;;;2.60;;
47882;SDS011;37739;50.350;7.578;2023-05-07T01:42:34;3.70;;;2.80;;
47882;SDS011;37739;50.350;7.578;2023-05-07T01:45:00;3.13;;;2.83;;
47882;SDS011;37739;50.350;7.578;2023-05-07T01:47:25;3.30;;;2.80;;
47882;SDS011;37739;50.350;7.578;2023-05-07T01:49:51;3.63;;;3.33;;
47882;SDS011;37739;50.350;7.578;2023-05-07T01:52:17;3.07;;;2.87;;
47882;SDS011;37739;50.350;7.578;2023-05-07T01:54:42;4.07;;;3.67;;
47882;SDS011;37739;50.350;7.578;2023-05-07T01:57:08;3.67;;;2.90;;
47882;SDS011;37739;50.350;7.578;2023-05-07T01:59:36;3.30;;;3.10;;
47882;SDS011;37739;50.350;7.578;2023-05-07T02:02:03;3.20;;;2.90;;
47882;SDS011;37739;50.350;7.578;2023-05-07T02:04:31;3.80;;;3.50;;
47882;SDS011;37739;50.350;7.578;2023-05-07T02:06:58;3.70;;;3.40;;
47882;SDS011;37739;50.350;7.578;2023-05-07T02:09:23;4.90;;;3.43;;
47882;SDS011;37739;50.350;7.578;2023-05-07T02:11:51;3.37;;;3.13;;
47882;SDS011;37739;50.350;7.578;2023-05-07T02:14:21;3.67;;;3.40;;
47882;SDS011;37739;50.350;7.578;2023-05-07T02:16:46;3.57;;;3.30;;
47882;SDS011;37739;50.350;7.578;2023-05-07T02:19:14;4.13;;;3.73;;
47882;SDS011;37739;50.350;7.578;2023-05-07T02:21:43;3.10;;;2.77;;
47882;SDS011;37739;50.350;7.578;2023-05-07T02:24:08;3.40;;;3.10;;
47882;SDS011;37739;50.350;7.578;2023-05-07T02:26:33;4.20;;;2.90;;
47882;SDS011;37739;50.350;7.578;2023-05-07T02:29:03;3.50;;;3.20;;
47882;SDS011;37739;50.350;7.578;2023-05-07T02:31:28;3.63;;;3.30;;
47882;SDS011;37739;50.350;7.578;2023-05-07T02:33:58;3.30;;;3.10;;
47882;SDS011;37739;50.350;7.578;2023-05-07T02:36:26;3.87;;;3.30;;
47882;SDS011;37739;50.350;7.578;2023-05-07T02:38:52;3.80;;;3.50;;
47882;SDS011;37739;50.350;7.578;2023-05-07T02:41:19;4.10;;;3.70;;
47882;SDS011;37739;50.350;7.578;2023-05-07T02:43:45;4.90;;;4.50;;
47882;SDS011;37739;50.350;7.578;2023-05-07T02:46:10;4.53;;;4.13;;
47882;SDS011;37739;50.350;7.578;2023-05-07T02:48:38;4.93;;;4.27;;
47882;SDS011;37739;50.350;7.578;2023-05-07T02:51:04;4.80;;;4.40;;
47882;SDS011;37739;50.350;7.578;2023-05-07T02:53:31;4.70;;;4.30;;
47882;SDS011;37739;50.350;7.578;2023-05-07T02:55:57;4.17;;;3.77;;
47882;SDS011;37739;50.350;7.578;2023-05-07T02:58:25;3.80;;;3.40;;
47882;SDS011;37739;50.350;7.578;2023-05-07T03:00:51;4.17;;;3.87;;
47882;SDS011;37739;50.350;7.578;2023-05-07T03:03:16;4.20;;;3.80;;
47882;SDS011;37739;50.350;7.578;2023-05-07T03:05:42;3.00;;;2.77;;
47882;SDS011;37739;50.350;7.578;2023-05-07T03:08:08;3.90;;;2.80;;
47882;SDS011;37739;50.350;7.578;2023-05-07T03:10:34;2.90;;;2.60;;
47882;SDS011;37739;50.350;7.578;2023-05-07T03:13:02;3.70;;;3.40;;
47882;SDS011;37739;50.350;7.578;2023-05-07T03:15:28;3.50;;;3.20;;
47882;SDS011;37739;50.350;7.578;2023-05-07T03:17:56;3.47;;;3.17;;
47882;SDS011;37739;50.350;7.578;2023-05-07T03:20:21;3.07;;;2.87;;
47882;SDS011;37739;50.350;7.578;2023-05-07T03:22:49;4.30;;;3.23;;
47882;SDS011;37739;50.350;7.578;2023-05-07T03:25:14;3.90;;;3.60;;
47882;SDS011;37739;50.350;7.578;2023-05-07T03:27:39;3.53;;;3.23;;
47882;SDS011;37739;50.350;7.578;2023-05-07T03:30:10;3.07;;;2.77;;
47882;SDS011;37739;50.350;7.578;2023-05-07T03:32:36;2.90;;;2.70;;
47882;SDS011;37739;50.350;7.578;2023-05-07T03:35:01;3.50;;;3.00;;
47882;SDS011;37739;50.350;7.578;2023-05-07T03:37:29;3.07;;;2.87;;
47882;SDS011;37739;50.350;7.578;2023-05-07T03:39:57;3.57;;;3.27;;
47882;SDS011;37739;50.350;7.578;2023-05-07T03:42:22;3.20;;;2.90;;
47882;SDS011;37739;50.350;7.578;2023-05-07T03:44:48;3.20;;;2.90;;
47882;SDS011;37739;50.350;7.578;2023-05-07T03:47:16;4.50;;;4.10;;
47882;SDS011;37739;50.350;7.578;2023-05-07T03:49:41;3.47;;;2.90;;
47882;SDS011;37739;50.350;7.578;2023-05-07T03:52:09;2.90;;;2.60;;
47882;SDS011;37739;50.350;7.578;2023-05-07T03:54:34;3.00;;;2.80;;
47882;SDS011;37739;50.350;7.578;2023-05-07T03:57:02;3.40;;;3.10;;
47882;SDS011;37739;50.350;7.578;2023-05-07T03:59:29;3.63;;;3.33;;
47882;SDS011;37739;50.350;7.578;2023-05-07T04:01:54;3.40;;;3.20;;
47882;SDS011;37739;50.350;7.578;2023-05-07T04:04:20;3.13;;;2.93;;
47882;SDS011;37739;50.350;7.578;2023-05-07T04:06:46;3.53;;;3.23;;
47882;SDS011;37739;50.350;7.578;2023-05-07T04:09:16;4.70;;;4.30;;
47882;SDS011;37739;50.350;7.578;2023-05-07T04:11:43;4.90;;;4.50;;
47882;SDS011;37739;50.350;7.578;2023-05-07T04:14:11;3.90;;;3.60;;
47882;SDS011;37739;50.350;7.578;2023-05-07T04:16:38;3.87;;;3.57;;
47882;SDS011;37739;50.350;7.578;2023-05-07T04:19:06;3.50;;;3.20;;
47882;SDS011;37739;50.350;7.578;2023-05-07T04:21:33;5.10;;;3.13;;
47882;SDS011;37739;50.350;7.578;2023-05-07T04:23:58;4.00;;;3.30;;
47882;SDS011;37739;50.350;7.578;2023-05-07T04:26:24;3.53;;;3.23;;
47882;SDS011;37739;50.350;7.578;2023-05-07T04:28:50;4.27;;;3.03;;
47882;SDS011;37739;50.350;7.578;2023-05-07T04:31:17;3.60;;;3.33;;
47882;SDS011;37739;50.350;7.578;2023-05-07T04:33:43;3.23;;;3.03;;
47882;SDS011;37739;50.350;7.578;2023-05-07T04:36:08;3.43;;;3.13;;
47882;SDS011;37739;50.350;7.578;2023-05-07T04:38:38;3.77;;;3.47;;
47882;SDS011;37739;50.350;7.578;2023-05-07T04:41:09;2.43;;;2.23;;
47882;SDS011;37739;50.350;7.578;2023-05-07T04:43:34;3.33;;;3.03;;
47882;SDS011;37739;50.350;7.578;2023-05-07T04:46:03;3.70;;;3.40;;
47882;SDS011;37739;50.350;7.578;2023-05-07T04:48:28;4.83;;;3.10;;
47882;SDS011;37739;50.350;7.578;2023-05-07T04:50:53;4.03;;;3.70;;
47882;SDS011;37739;50.350;7.578;2023-05-07T04:53:19;3.03;;;2.83;;
47882;SDS011;37739;50.350;7.578;2023-05-07T04:55:45;3.43;;;3.10;;
47882;SDS011;37739;50.350;7.578;2023-05-07T04:58:13;3.37;;;3.13;;
47882;SDS011;37739;50.350;7.578;2023-05-07T05:00:38;3.40;;;2.77;;
47882;SDS011;37739;50.350;7.578;2023-05-07T05:03:07;3.20;;;3.00;;
47882;SDS011;37739;50.350;7.578;2023-05-07T05:05:32;3.30;;;3.00;;
47882;SDS011;37739;50.350;7.578;2023-05-07T05:07:58;3.40;;;3.20;;
47882;SDS011;37739;50.350;7.578;2023-05-07T05:10:23;2.63;;;2.43;;
47882;SDS011;37739;50.350;7.578;2023-05-07T05:12:48;3.20;;;2.97;;
47882;SDS011;37739;50.350;7.578;2023-05-07T05:15:16;3.00;;;2.80;;
47882;SDS011;37739;50.350;7.578;2023-05-07T05:17:41;2.87;;;2.67;;
47882;SDS011;37739;50.350;7.578;2023-05-07T05:20:07;3.00;;;2.70;;
47882;SDS011;37739;50.350;7.578;2023-05-07T05:22:35;3.47;;;3.20;;
47882;SDS011;37739;50.350;7.578;2023-05-07T05:25:01;2.87;;;2.67;;
47882;SDS011;37739;50.350;7.578;2023-05-07T05:27:28;2.90;;;2.70;;
47882;SDS011;37739;50.350;7.578;2023-05-07T05:29:54;3.53;;;3.23;;
47882;SDS011;37739;50.350;7.578;2023-05-07T05:32:19;3.70;;;3.27;;
47882;SDS011;37739;50.350;7.578;2023-05-07T05:34:45;3.10;;;2.90;;
47882;SDS011;37739;50.350;7.578;2023-05-07T05:37:15;3.50;;;3.20;;
47882;SDS011;37739;50.350;7.578;2023-05-07T05:39:42;3.40;;;3.10;;
47882;SDS011;37739;50.350;7.578;2023-05-07T05:42:09;3.47;;;3.17;;
47882;SDS011;37739;50.350;7.578;2023-05-07T05:44:34;3.20;;;3.00;;
47882;SDS011;37739;50.350;7.578;2023-05-07T05:46:59;4.00;;;3.70;;
47882;SDS011;37739;50.350;7.578;2023-05-07T05:49:25;4.03;;;3.73;;
47882;SDS011;37739;50.350;7.578;2023-05-07T05:51:50;4.13;;;3.83;;
47882;SDS011;37739;50.350;7.578;2023-05-07T05:54:18;3.90;;;3.60;;
47882;SDS011;37739;50.350;7.578;2023-05-07T05:56:43;4.50;;;4.10;;
47882;SDS011;37739;50.350;7.578;2023-05-07T05:59:09;4.57;;;4.20;;
47882;SDS011;37739;50.350;7.578;2023-05-07T06:01:37;3.80;;;3.50;;
47882;SDS011;37739;50.350;7.578;2023-05-07T06:04:06;4.13;;;3.83;;
47882;SDS011;37739;50.350;7.578;2023-05-07T06:06:36;4.10;;;3.80;;
47882;SDS011;37739;50.350;7.578;2023-05-07T06:09:03;3.87;;;3.50;;
47882;SDS011;37739;50.350;7.578;2023-05-07T06:11:28;3.60;;;3.30;;
47882;SDS011;37739;50.350;7.578;2023-05-07T06:13:54;2.93;;;2.57;;
47882;SDS011;37739;50.350;7.578;2023-05-07T06:16:22;3.70;;;3.40;;
47882;SDS011;37739;50.350;7.578;2023-05-07T06:18:52;3.10;;;2.83;;
47882;SDS011;37739;50.350;7.578;2023-05-07T06:21:22;3.90;;;2.80;;
47882;SDS011;37739;50.350;7.578;2023-05-07T06:23:47;3.07;;;2.80;;
47882;SDS011;37739;50.350;7.578;2023-05-07T06:26:12;5.13;;;4.00;;
47882;SDS011;37739;50.350;7.578;2023-05-07T06:28:42;3.03;;;2.80;;
47882;SDS011;37739;50.350;7.578;2023-05-07T06:31:28;2.80;;;2.60;;
47882;SDS011;37739;50.350;7.578;2023-05-07T06:33:56;2.63;;;2.43;;
47882;SDS011;37739;50.350;7.578;2023-05-07T06:36:24;2.77;;;2.43;;
47882;SDS011;37739;50.350;7.578;2023-05-07T06:38:50;2.70;;;2.30;;
47882;SDS011;37739;50.350;7.578;2023-05-07T06:41:15;3.00;;;2.53;;
47882;SDS011;37739;50.350;7.578;2023-05-07T06:43:40;4.00;;;2.60;;
47882;SDS011;37739;50.350;7.578;2023-05-07T06:46:06;2.70;;;2.50;;
47882;SDS011;37739;50.350;7.578;2023-05-07T06:48:31;2.83;;;2.00;;
47882;SDS011;37739;50.350;7.578;2023-05-07T06:50:56;2.30;;;2.10;;
47882;SDS011;37739;50.350;7.578;2023-05-07T06:53:22;2.30;;;2.10;;
47882;SDS011;37739;50.350;7.578;2023-05-07T06:55:50;3.33;;;2.10;;
47882;SDS011;37739;50.350;7.578;2023-05-07T06:58:17;2.20;;;2.00;;
47882;SDS011;37739;50.350;7.578;2023-05-07T07:00:44;2.30;;;2.00;;
47882;SDS011;37739;50.350;7.578;2023-05-07T07:03:12;2.73;;;1.90;;
47882;SDS011;37739;50.350;7.578;2023-05-07T07:05:40;2.17;;;1.50;;
47882;SDS011;37739;50.350;7.578;2023-05-07T07:08:06;2.70;;;2.00;;
47882;SDS011;37739;50.350;7.578;2023-05-07T07:10:34;2.30;;;2.10;;
47882;SDS011;37739;50.350;7.578;2023-05-07T07:12:59;2.40;;;2.20;;
47882;SDS011;37739;50.350;7.578;2023-05-07T07:15:25;2.03;;;1.90;;
47882;SDS011;37739;50.350;7.578;2023-05-07T07:17:51;2.73;;;2.07;;
47882;SDS011;37739;50.350;7.578;2023-05-07T07:20:16;2.10;;;1.90;;
47882;SDS011;37739;50.350;7.578;2023-05-07T07:22:44;2.03;;;1.57;;
47882;SDS011;37739;50.350;7.578;2023-05-07T07:25:10;2.10;;;1.80;;
47882;SDS011;37739;50.350;7.578;2023-05-07T07:27:36;3.00;;;1.70;;
47882;SDS011;37739;50.350;7.578;2023-05-07T07:30:02;3.23;;;1.77;;
47882;SDS011;37739;50.350;7.578;2023-05-07T07:32:28;1.90;;;1.77;;
47882;SDS011;37739;50.350;7.578;2023-05-07T07:34:57;2.77;;;1.60;;
47882;SDS011;37739;50.350;7.578;2023-05-07T07:37:24;1.93;;;1.73;;
47882;SDS011;37739;50.350;7.578;2023-05-07T07:39:53;1.87;;;1.50;;
47882;SDS011;37739;50.350;7.578;2023-05-07T07:42:18;1.90;;;1.70;;
47882;SDS011;37739;50.350;7.578;2023-05-07T07:44:45;2.73;;;2.30;;
47882;SDS011;37739;50.350;7.578;2023-05-07T07:47:13;2.53;;;1.90;;
47882;SDS011;37739;50.350;7.578;2023-05-07T07:49:41;2.60;;;1.67;;
47882;SDS011;37739;50.350;7.578;2023-05-07T07:52:06;3.60;;;1.73;;
47882;SDS011;37739;50.350;7.578;2023-05-07T07:54:31;1.70;;;1.60;;
47882;SDS011;37739;50.350;7.578;2023-05-07T07:56:57;1.83;;;1.73;;
47882;SDS011;37739;50.350;7.578;2023-05-07T07:59:25;3.10;;;2.00;;
47882;SDS011;37739;50.350;7.578;2023-05-07T08:01:52;2.13;;;1.90;;
47882;SDS011;37739;50.350;7.578;2023-05-07T08:04:20;2.33;;;1.90;;
47882;SDS011;37739;50.350;7.578;2023-05-07T08:06:46;2.10;;;1.63;;
47882;SDS011;37739;50.350;7.578;2023-05-07T08:09:11;1.63;;;1.53;;
47882;SDS011;37739;50.350;7.578;2023-05-07T08:11:39;1.73;;;1.63;;
47882;SDS011;37739;50.350;7.578;2023-05-07T08:14:04;1.67;;;1.53;;
47882;SDS011;37739;50.350;7.578;2023-05-07T08:16:35;1.60;;;1.50;;
47882;SDS011;37739;50.350;7.578;2023-05-07T08:19:00;2.10;;;1.90;;
47882;SDS011;37739;50.350;7.578;2023-05-07T08:21:25;1.77;;;1.67;;
47882;SDS011;37739;50.350;7.578;2023-05-07T08:23:51;1.60;;;1.50;;
47882;SDS011;37739;50.350;7.578;2023-05-07T08:26:18;2.17;;;1.60;;
47882;SDS011;37739;50.350;7.578;2023-05-07T08:28:46;2.20;;;1.50;;
47882;SDS011;37739;50.350;7.578;2023-05-07T08:31:11;2.17;;;1.93;;
47882;SDS011;37739;50.350;7.578;2023-05-07T08:33:37;2.70;;;2.10;;
47882;SDS011;37739;50.350;7.578;2023-05-07T08:36:03;1.60;;;1.50;;
47882;SDS011;37739;50.350;7.578;2023-05-07T08:38:29;2.53;;;1.60;;
47882;SDS011;37739;50.350;7.578;2023-05-07T08:40:54;1.60;;;1.47;;
47882;SDS011;37739;50.350;7.578;2023-05-07T08:43:25;2.10;;;1.90;;
47882;SDS011;37739;50.350;7.578;2023-05-07T08:45:57;2.10;;;1.80;;
47882;SDS011;37739;50.350;7.578;2023-05-07T08:48:27;2.10;;;1.90;;
47882;SDS011;37739;50.350;7.578;2023-05-07T08:50:55;1.93;;;1.47;;
47882;SDS011;37739;50.350;7.578;2023-05-07T08:53:20;2.40;;;2.00;;
47882;SDS011;37739;50.350;7.578;2023-05-07T08:55:46;1.90;;;1.77;;
47882;SDS011;37739;50.350;7.578;2023-05-07T08:58:12;1.73;;;1.50;;
47882;SDS011;37739;50.350;7.578;2023-05-07T09:00:40;1.70;;;1.60;;
47882;SDS011;37739;50.350;7.578;2023-05-07T09:03:09;1.93;;;1.40;;
47882;SDS011;37739;50.350;7.578;2023-05-07T09:05:37;2.50;;;1.83;;
47882;SDS011;37739;50.350;7.578;2023-05-07T09:08:03;1.90;;;1.80;;
47882;SDS011;37739;50.350;7.578;2023-05-07T09:10:32;1.60;;;1.50;;
47882;SDS011;37739;50.350;7.578;2023-05-07T09:13:02;2.33;;;1.50;;
47882;SDS011;37739;50.350;7.578;2023-05-07T09:15:30;1.50;;;1.40;;
47882;SDS011;37739;50.350;7.578;2023-05-07T09:17:59;1.87;;;1.63;;
47882;SDS011;37739;50.350;7.578;2023-05-07T09:20:32;1.73;;;1.63;;
47882;SDS011;37739;50.350;7.578;2023-05-07T09:22:57;3.20;;;1.73;;
47882;SDS011;37739;50.350;7.578;2023-05-07T09:25:31;1.93;;;1.70;;
47882;SDS011;37739;50.350;7.578;2023-05-07T09:28:01;2.40;;;1.60;;
47882;SDS011;37739;50.350;7.578;2023-05-07T09:30:27;1.87;;;1.40;;
47882;SDS011;37739;50.350;7.578;2023-05-07T09:32:54;1.80;;;1.70;;
47882;SDS011;37739;50.350;7.578;2023-05-07T09:35:20;2.83;;;1.73;;
47882;SDS011;37739;50.350;7.578;2023-05-07T09:37:53;1.97;;;1.73;;
47882;SDS011;37739;50.350;7.578;2023-05-07T09:40:29;2.00;;;1.50;;
47882;SDS011;37739;50.350;7.578;2023-05-07T09:43:08;1.93;;;1.73;;
47882;SDS011;37739;50.350;7.578;2023-05-07T09:45:37;2.10;;;1.80;;
47882;SDS011;37739;50.350;7.578;2023-05-07T09:48:04;1.80;;;1.60;;
47882;SDS011;37739;50.350;7.578;2023-05-07T09:50:35;2.63;;;1.80;;
47882;SDS011;37739;50.350;7.578;2023-05-07T09:53:07;2.63;;;1.73;;
47882;SDS011;37739;50.350;7.578;2023-05-07T09:55:35;3.23;;;1.77;;
47882;SDS011;37739;50.350;7.578;2023-05-07T09:58:03;2.03;;;1.93;;
47882;SDS011;37739;50.350;7.578;2023-05-07T10:00:30;1.50;;;1.40;;
47882;SDS011;37739;50.350;7.578;2023-05-07T10:02:59;2.40;;;2.00;;
47882;SDS011;37739;50.350;7.578;2023-05-07T10:05:26;1.60;;;1.50;;
47882;SDS011;37739;50.350;7.578;2023-05-07T10:07:54;2.17;;;1.57;;
47882;SDS011;37739;50.350;7.578;2023-05-07T10:10:21;3.00;;;1.70;;
47882;SDS011;37739;50.350;7.578;2023-05-07T10:12:51;1.70;;;1.60;;
47882;SDS011;37739;50.350;7.578;2023-05-07T10:15:19;2.00;;;1.80;;
47882;SDS011;37739;50.350;7.578;2023-05-07T10:17:49;2.07;;;1.90;;
47882;SDS011;37739;50.350;7.578;2023-05-07T10:20:16;2.03;;;1.73;;
47882;SDS011;37739;50.350;7.578;2023-05-07T10:22:45;1.83;;;1.60;;
47882;SDS011;37739;50.350;7.578;2023-05-07T10:25:18;1.87;;;1.70;;
47882;SDS011;37739;50.350;7.578;2023-05-07T10:27:55;2.63;;;1.67;;
47882;SDS011;37739;50.350;7.578;2023-05-07T10:30:34;1.60;;;1.40;;
47882;SDS011;37739;50.350;7.578;2023-05-07T10:33:01;2.20;;;1.80;;
47882;SDS011;37739;50.350;7.578;2023-05-07T10:35:38;1.70;;;1.60;;
47882;SDS011;37739;50.350;7.578;2023-05-07T10:38:07;2.10;;;1.77;;
47882;SDS011;37739;50.350;7.578;2023-05-07T10:40:36;1.50;;;1.40;;
47882;SDS011;37739;50.350;7.578;2023-05-07T10:43:02;1.30;;;1.20;;
47882;SDS011;37739;50.350;7.578;2023-05-07T10:45:30;3.93;;;1.50;;
47882;SDS011;37739;50.350;7.578;2023-05-07T10:50:36;2.67;;;1.50;;
47882;SDS011;37739;50.350;7.578;2023-05-07T10:56:23;2.90;;;1.40;;
47882;SDS011;37739;50.350;7.578;2023-05-07T10:58:43;1.70;;;1.43;;
47882;SDS011;37739;50.350;7.578;2023-05-07T11:01:11;2.43;;;1.40;;
47882;SDS011;37739;50.350;7.578;2023-05-07T11:04:12;1.67;;;1.57;;
47882;SDS011;37739;50.350;7.578;2023-05-07T11:06:40;1.90;;;1.70;;
47882;SDS011;37739;50.350;7.578;2023-05-07T11:09:08;1.50;;;1.30;;
47882;SDS011;37739;50.350;7.578;2023-05-07T11:11:46;2.10;;;1.37;;
47882;SDS011;37739;50.350;7.578;2023-05-07T11:14:40;1.70;;;1.50;;
47882;SDS011;37739;50.350;7.578;2023-05-07T11:17:10;1.60;;;1.50;;
47882;SDS011;37739;50.350;7.578;2023-05-07T11:19:50;1.70;;;1.30;;
47882;SDS011;37739;50.350;7.578;2023-05-07T11:25:17;1.73;;;1.63;;
47882;SDS011;37739;50.350;7.578;2023-05-07T11:27:46;1.67;;;1.57;;
47882;SDS011;37739;50.350;7.578;2023-05-07T11:30:17;2.00;;;1.80;;
47882;SDS011;37739;50.350;7.578;2023-05-07T11:32:47;2.20;;;2.00;;
47882;SDS011;37739;50.350;7.578;2023-05-07T11:35:13;2.97;;;1.53;;
47882;SDS011;37739;50.350;7.578;2023-05-07T11:37:40;3.17;;;1.63;;
47882;SDS011;37739;50.350;7.578;2023-05-07T11:40:07;2.20;;;1.60;;
47882;SDS011;37739;50.350;7.578;2023-05-07T11:42:34;1.67;;;1.57;;
47882;SDS011;37739;50.350;7.578;2023-05-07T11:45:06;1.40;;;1.30;;
47882;SDS011;37739;50.350;7.578;2023-05-07T11:47:32;2.30;;;1.70;;
47882;SDS011;37739;50.350;7.578;2023-05-07T11:50:04;2.13;;;1.63;;
47882;SDS011;37739;50.350;7.578;2023-05-07T11:52:35;1.70;;;1.60;;
47882;SDS011;37739;50.350;7.578;2023-05-07T11:55:01;1.53;;;1.43;;
47882;SDS011;37739;50.350;7.578;2023-05-07T11:57:28;2.60;;;1.83;;
47882;SDS011;37739;50.350;7.578;2023-05-07T11:59:54;2.23;;;1.73;;
47882;SDS011;37739;50.350;7.578;2023-05-07T12:02:23;1.83;;;1.60;;
47882;SDS011;37739;50.350;7.578;2023-05-07T12:04:50;2.17;;;1.70;;
47882;SDS011;37739;50.350;7.578;2023-05-07T12:07:20;1.93;;;1.73;;
47882;SDS011;37739;50.350;7.578;2023-05-07T12:09:46;1.67;;;1.50;;
47882;SDS011;37739;50.350;7.578;2023-05-07T12:12:14;2.33;;;1.47;;
47882;SDS011;37739;50.350;7.578;2023-05-07T12:14:44;2.00;;;1.90;;
47882;SDS011;37739;50.350;7.578;2023-05-07T12:17:13;1.70;;;1.60;;
47882;SDS011;37739;50.350;7.578;2023-05-07T12:19:43;2.23;;;1.73;;
47882;SDS011;37739;50.350;7.578;2023-05-07T12:22:12;1.70;;;1.60;;
47882;SDS011;37739;50.350;7.578;2023-05-07T12:27:11;2.63;;;1.70;;
47882;SDS011;37739;50.350;7.578;2023-05-07T12:29:38;2.80;;;1.70;;
47882;SDS011;37739;50.350;7.578;2023-05-07T12:32:06;3.60;;;1.63;;
47882;SDS011;37739;50.350;7.578;2023-05-07T12:34:31;2.00;;;1.77;;
47882;SDS011;37739;50.350;7.578;2023-05-07T12:36:57;1.73;;;1.53;;
47882;SDS011;37739;50.350;7.578;2023-05-07T12:39:24;1.80;;;1.70;;
47882;SDS011;37739;50.350;7.578;2023-05-07T12:41:56;1.70;;;1.60;;
47882;SDS011;37739;50.350;7.578;2023-05-07T12:44:24;1.70;;;1.60;;
47882;SDS011;37739;50.350;7.578;2023-05-07T12:46:50;1.73;;;1.63;;
47882;SDS011;37739;50.350;7.578;2023-05-07T12:49:20;2.10;;;1.60;;
47882;SDS011;37739;50.350;7.578;2023-05-07T12:51:53;1.90;;;1.80;;
47882;SDS011;37739;50.350;7.578;2023-05-07T12:54:29;1.70;;;1.60;;
47882;SDS011;37739;50.350;7.578;2023-05-07T12:57:02;1.77;;;1.67;;
47882;SDS011;37739;50.350;7.578;2023-05-07T12:59:32;2.40;;;1.80;;
47882;SDS011;37739;50.350;7.578;2023-05-07T13:02:04;2.40;;;2.00;;
47882;SDS011;37739;50.350;7.578;2023-05-07T13:04:30;2.20;;;1.80;;
47882;SDS011;37739;50.350;7.578;2023-05-07T13:06:55;3.40;;;1.90;;
47882;SDS011;37739;50.350;7.578;2023-05-07T13:09:20;2.70;;;1.97;;
47882;SDS011;37739;50.350;7.578;2023-05-07T13:11:48;1.93;;;1.60;;
47882;SDS011;37739;50.350;7.578;2023-05-07T13:14:13;1.80;;;1.70;;
47882;SDS011;37739;50.350;7.578;2023-05-07T13:16:38;1.60;;;1.50;;
47882;SDS011;37739;50.350;7.578;2023-05-07T13:19:04;2.23;;;1.80;;
47882;SDS011;37739;50.350;7.578;2023-05-07T13:21:29;1.90;;;1.70;;
47882;SDS011;37739;50.350;7.578;2023-05-07T13:23:58;1.70;;;1.60;;
47882;SDS011;37739;50.350;7.578;2023-05-07T13:26:24;1.70;;;1.60;;
47882;SDS011;37739;50.350;7.578;2023-05-07T13:28:52;1.73;;;1.63;;
47882;SDS011;37739;50.350;7.578;2023-05-07T13:31:20;2.10;;;1.90;;
47882;SDS011;37739;50.350;7.578;2023-05-07T13:33:47;2.47;;;1.83;;
47882;SDS011;37739;50.350;7.578;2023-05-07T13:36:15;1.73;;;1.63;;
47882;SDS011;37739;50.350;7.578;2023-05-07T13:38:40;2.20;;;2.00;;
47882;SDS011;37739;50.350;7.578;2023-05-07T13:41:08;2.00;;;1.90;;
47882;SDS011;37739;50.350;7.578;2023-05-07T13:43:34;2.30;;;2.00;;
47882;SDS011;37739;50.350;7.578;2023-05-07T13:45:59;1.73;;;1.60;;
47882;SDS011;37739;50.350;7.578;2023-05-07T13:48:25;2.30;;;2.10;;
47882;SDS011;37739;50.350;7.578;2023-05-07T13:50:50;2.63;;;2.30;;
47882;SDS011;37739;50.350;7.578;2023-05-07T13:53:19;1.90;;;1.80;;
47882;SDS011;37739;50.350;7.578;2023-05-07T13:55:44;2.17;;;1.97;;
47882;SDS011;37739;50.350;7.578;2023-05-07T13:58:10;2.33;;;1.90;;
47882;SDS011;37739;50.350;7.578;2023-05-07T14:00:40;2.37;;;2.17;;
47882;SDS011;37739;50.350;7.578;2023-05-07T14:03:06;1.83;;;1.73;;
47882;SDS011;37739;50.350;7.578;2023-05-07T14:05:31;1.70;;;1.57;;
47882;SDS011;37739;50.350;7.578;2023-05-07T14:07:58;2.80;;;1.80;;
47882;SDS011;37739;50.350;7.578;2023-05-07T14:10:24;2.60;;;2.00;;
47882;SDS011;37739;50.350;7.578;2023-05-07T14:12:49;2.17;;;1.97;;
47882;SDS011;37739;50.350;7.578;2023-05-07T14:15:15;2.30;;;2.10;;
47882;SDS011;37739;50.350;7.578;2023-05-07T14:17:43;2.80;;;1.63;;
47882;SDS011;37739;50.350;7.578;2023-05-07T14:20:08;2.40;;;2.03;;
47882;SDS011;37739;50.350;7.578;2023-05-07T14:22:37;2.63;;;1.93;;
47882;SDS011;37739;50.350;7.578;2023-05-07T14:25:05;2.60;;;1.80;;
47882;SDS011;37739;50.350;7.578;2023-05-07T14:27:31;2.27;;;2.07;;
47882;SDS011;37739;50.350;7.578;2023-05-07T14:29:56;3.90;;;2.23;;
47882;SDS011;37739;50.350;7.578;2023-05-07T14:32:23;3.23;;;2.07;;
47882;SDS011;37739;50.350;7.578;2023-05-07T14:34:49;1.97;;;1.87;;
47882;SDS011;37739;50.350;7.578;2023-05-07T14:37:17;3.70;;;2.30;;
47882;SDS011;37739;50.350;7.578;2023-05-07T14:39:44;2.20;;;1.97;;
47882;SDS011;37739;50.350;7.578;2023-05-07T14:42:10;2.73;;;2.53;;
47882;SDS011;37739;50.350;7.578;2023-05-07T14:44:37;3.00;;;2.27;;
47882;SDS011;37739;50.350;7.578;2023-05-07T14:47:05;2.47;;;2.27;;
47882;SDS011;37739;50.350;7.578;2023-05-07T14:49:31;2.33;;;2.03;;
47882;SDS011;37739;50.350;7.578;2023-05-07T14:51:57;2.50;;;2.30;;
47882;SDS011;37739;50.350;7.578;2023-05-07T14:54:26;2.30;;;2.10;;
47882;SDS011;37739;50.350;7.578;2023-05-07T14:56:54;3.63;;;2.43;;
47882;SDS011;37739;50.350;7.578;2023-05-07T14:59:22;3.13;;;2.83;;
47882;SDS011;37739;50.350;7.578;2023-05-07T15:01:52;2.90;;;2.70;;